Weather at Barcelona International Airport

Public forecast

Using degrees Celsius for public forecast. Weather courtesy of forecast.io.

Current aviation weather report (METAR) for Barcelona International Airport

Retrieved 2020/10/27 08:30 UTC (0 seconds ago):

LEBL 270830Z 34008KT 9999 FEW020 13/05 Q1017 NOSIG

Aviation forecast (TAF) for Barcelona International Airport

Retrieved 2020/10/27 06:27 UTC (2 hours ago):

TAF LEBL 270500Z 2706/2806 30008KT 9999 FEW020 TX21/2713Z TN13/2806Z